Time;durP1;ratioP1;P1;durP2;ratioP2;P2;SDS_P1;SDS_P2;PMS_P1;PMS_P2;Temp;Humidity;BMP_temperature;BMP_pressure;BME280_temperature;BME280_humidity;BME280_pressure;Samples;Min_cycle;Max_cycle;Signal;HPM_P1;HPM_P2
2021/05/26 00:04:26;;;;;;;2.20;0.77;;;;;;;10.49;74.72;100184.34;10283620;28;20110;-58
2021/05/26 00:09:27;;;;;;;4.55;1.45;;;;;;;10.49;74.03;100187.00;10289476;28;20101;-54
2021/05/26 00:14:29;;;;;;;2.25;1.05;;;;;;;10.60;74.06;100183.50;10291822;28;20101;-57
2021/05/26 00:19:31;;;;;;;2.47;0.80;;;;;;;10.60;73.54;100162.19;10267351;28;20560;-54
2021/05/26 00:24:32;;;;;;;2.95;1.00;;;;;;;10.65;73.17;100157.31;10286851;28;20121;-53
2021/05/26 00:29:34;;;;;;;2.50;0.90;;;;;;;10.75;73.96;100165.41;10294371;28;20125;-58
2021/05/26 00:34:35;;;;;;;4.03;0.90;;;;;;;10.82;73.00;100163.06;10288046;28;20050;-54
2021/05/26 00:39:37;;;;;;;4.18;1.65;;;;;;;10.80;73.55;100163.19;10293134;28;20124;-58
2021/05/26 00:44:38;;;;;;;3.67;0.93;;;;;;;10.76;73.50;100167.94;10295626;28;20074;-54
2021/05/26 00:49:40;;;;;;;2.50;0.60;;;;;;;10.80;73.62;100179.19;10298484;28;20066;-58
2021/05/26 00:54:41;;;;;;;2.10;0.85;;;;;;;10.77;75.18;100158.13;10301327;28;20124;-57
2021/05/26 00:59:42;;;;;;;3.10;0.90;;;;;;;10.81;76.29;100154.25;10295647;28;20120;-55
2021/05/26 01:04:44;;;;;;;4.13;1.08;;;;;;;10.71;76.65;100143.50;10295870;28;20120;-57
2021/05/26 01:09:45;;;;;;;3.10;0.88;;;;;;;10.75;74.90;100133.47;10299343;28;20100;-58
2021/05/26 01:14:47;;;;;;;2.95;0.80;;;;;;;10.79;75.51;100118.91;10280223;28;20054;-58
2021/05/26 01:19:48;;;;;;;2.45;0.82;;;;;;;10.77;76.27;100112.88;10294599;28;20070;-55
2021/05/26 01:24:49;;;;;;;3.40;0.90;;;;;;;10.74;76.11;100099.81;10295408;28;20258;-57
2021/05/26 01:29:51;;;;;;;2.78;0.95;;;;;;;10.66;76.49;100100.47;10291082;28;22036;-57
2021/05/26 01:34:53;;;;;;;2.65;1.00;;;;;;;10.65;76.83;100105.91;10275798;28;20093;-58
2021/05/26 01:39:55;;;;;;;1.60;0.80;;;;;;;10.67;76.77;100109.28;10285748;28;20078;-56
2021/05/26 01:44:57;;;;;;;3.53;1.98;;;;;;;10.72;77.65;100109.72;10294739;28;20104;-58
2021/05/26 01:49:58;;;;;;;2.03;0.88;;;;;;;10.64;76.84;100077.59;10293084;28;20065;-55
2021/05/26 01:55:01;;;;;;;3.80;1.80;;;;;;;10.72;77.80;100096.41;10296102;28;20058;-57
2021/05/26 02:00:04;;;;;;;2.55;0.85;;;;;;;10.64;76.65;100082.91;10296249;28;20064;-59
2021/05/26 02:05:07;;;;;;;3.88;0.90;;;;;;;10.54;76.94;100089.00;10296665;28;20042;-55
2021/05/26 02:10:11;;;;;;;3.80;0.93;;;;;;;10.58;76.88;100089.59;10290774;28;20119;-57
2021/05/26 02:15:14;;;;;;;3.17;1.40;;;;;;;10.63;77.40;100091.88;10279304;28;20046;-55
2021/05/26 02:20:16;;;;;;;1.98;0.82;;;;;;;10.44;77.32;100072.94;10281910;28;20427;-53
2021/05/26 02:25:17;;;;;;;2.47;1.02;;;;;;;10.60;78.06;100085.00;10284880;28;20073;-57
2021/05/26 02:30:19;;;;;;;2.25;1.02;;;;;;;10.52;77.79;100085.63;10290165;28;20505;-57
2021/05/26 02:35:20;;;;;;;2.03;0.85;;;;;;;10.45;77.95;100073.81;10294308;28;20323;-56
2021/05/26 02:40:22;;;;;;;2.60;0.90;;;;;;;10.45;78.34;100073.81;10292259;28;20544;-55
2021/05/26 02:45:23;;;;;;;2.58;1.60;;;;;;;10.33;78.87;100053.47;10294557;28;20554;-57
2021/05/26 02:50:25;;;;;;;3.95;1.30;;;;;;;10.30;78.90;100049.28;10295711;28;20536;-56
2021/05/26 02:55:27;;;;;;;3.75;1.10;;;;;;;10.36;79.32;100050.63;10292357;28;20049;-58
2021/05/26 03:00:29;;;;;;;2.47;1.20;;;;;;;10.39;79.17;100043.22;10292518;28;20097;-58
2021/05/26 03:05:30;;;;;;;3.33;1.17;;;;;;;10.44;79.03;100050.81;10277555;28;20054;-56
2021/05/26 03:10:32;;;;;;;4.50;1.45;;;;;;;10.45;79.98;100044.53;10276813;28;20566;-56
2021/05/26 03:15:34;;;;;;;5.80;2.20;;;;;;;10.57;80.05;100035.53;10292174;28;20051;-54
2021/05/26 03:20:35;;;;;;;4.40;1.10;;;;;;;10.66;79.00;100028.59;10295407;28;20113;-54
2021/05/26 03:25:37;;;;;;;2.75;1.10;;;;;;;10.59;78.55;100020.25;10290378;28;20054;-57
2021/05/26 03:30:39;;;;;;;4.13;1.23;;;;;;;10.61;79.83;100026.31;10283919;28;20062;-54
2021/05/26 03:35:42;;;;;;;2.67;1.45;;;;;;;10.62;78.60;100021.81;10292316;28;20141;-53
2021/05/26 03:40:44;;;;;;;4.03;1.50;;;;;;;10.41;79.27;99987.22;10288603;28;20473;-58
2021/05/26 03:45:45;;;;;;;6.47;1.80;;;;;;;10.57;80.53;100003.59;10288043;28;20050;-52
2021/05/26 03:50:47;;;;;;;2.78;1.50;;;;;;;10.58;80.51;99991.13;10291306;28;20042;-57
2021/05/26 03:55:49;;;;;;;2.33;1.45;;;;;;;10.63;79.85;99996.03;10290053;28;20050;-58
2021/05/26 04:00:50;;;;;;;3.95;2.35;;;;;;;10.63;81.54;99998.72;10295506;28;20054;-55
2021/05/26 04:05:52;;;;;;;3.40;1.30;;;;;;;10.64;79.86;99989.75;10295505;28;20050;-54
2021/05/26 04:10:53;;;;;;;4.00;1.40;;;;;;;10.60;80.42;99991.84;10294014;28;20046;-54
2021/05/26 04:15:55;;;;;;;5.35;1.63;;;;;;;10.61;80.28;99988.19;10301093;28;20139;-59
2021/05/26 04:20:56;;;;;;;4.05;1.55;;;;;;;10.61;80.65;99973.09;10297480;28;20062;-54
2021/05/26 04:25:57;;;;;;;4.15;1.80;;;;;;;10.64;80.54;99965.81;10303196;28;20452;-58
2021/05/26 04:30:59;;;;;;;2.97;1.35;;;;;;;10.72;79.53;99973.97;10300247;28;20054;-58
2021/05/26 04:36:00;;;;;;;2.75;1.70;;;;;;;10.63;80.02;99974.75;10292584;28;20067;-57
2021/05/26 04:41:02;;;;;;;5.03;1.65;;;;;;;10.61;80.33;99958.91;10300415;28;20496;-55
2021/05/26 04:46:04;;;;;;;2.92;1.67;;;;;;;10.68;79.67;99972.56;10282465;28;20160;-57
2021/05/26 04:51:06;;;;;;;6.28;2.17;;;;;;;10.61;80.56;99966.91;10298352;28;20053;-59
2021/05/26 04:56:07;;;;;;;4.88;1.85;;;;;;;10.60;80.33;99968.72;10298674;28;20062;-56
2021/05/26 05:01:10;;;;;;;3.85;1.98;;;;;;;10.50;80.86;99964.31;10299556;28;20042;-54
2021/05/26 05:06:12;;;;;;;5.18;1.80;;;;;;;10.44;82.09;99960.34;10276473;28;20050;-58
2021/05/26 05:11:13;;;;;;;4.75;2.20;;;;;;;10.64;83.15;99958.66;10275564;28;20050;-59
2021/05/26 05:16:15;;;;;;;7.82;2.60;;;;;;;10.48;82.18;99908.56;10293410;28;20526;-58
2021/05/26 05:21:16;;;;;;;8.20;2.78;;;;;;;10.64;82.31;99939.19;10291392;28;20667;-56
2021/05/26 05:26:18;;;;;;;3.85;2.35;;;;;;;10.71;82.34;99930.53;10296331;28;20124;-56
2021/05/26 05:31:19;;;;;;;5.38;1.98;;;;;;;10.79;81.85;99925.41;10286658;28;20049;-56
2021/05/26 05:36:21;;;;;;;4.97;1.90;;;;;;;10.74;82.08;99914.28;10272589;28;20054;-56
2021/05/26 05:41:22;;;;;;;5.28;2.42;;;;;;;10.65;81.08;99908.94;10285804;28;20140;-56
2021/05/26 05:46:24;;;;;;;4.82;2.17;;;;;;;10.67;81.04;99917.63;10269759;28;20085;-57
2021/05/26 05:51:25;;;;;;;5.50;2.40;;;;;;;10.76;81.35;99917.69;10268512;28;20058;-59
2021/05/26 05:56:27;;;;;;;5.15;2.05;;;;;;;10.72;81.17;99936.69;10287117;28;20090;-55
2021/05/26 06:01:28;;;;;;;6.72;2.70;;;;;;;10.68;81.53;99920.16;10290772;28;20124;-58
2021/05/26 06:06:30;;;;;;;7.90;2.40;;;;;;;10.75;82.47;99945.28;10292688;28;20054;-56
2021/05/26 06:11:33;;;;;;;5.65;2.97;;;;;;;10.79;82.86;99913.88;10291502;28;20082;-61
2021/05/26 06:16:38;;;;;;;6.70;2.20;;;;;;;10.96;82.79;99918.59;10297998;28;20062;-55
2021/05/26 06:21:40;;;;;;;4.72;2.58;;;;;;;10.92;82.70;99906.53;10274337;28;20124;-55
2021/05/26 06:26:42;;;;;;;5.57;3.90;;;;;;;10.99;81.25;99906.84;10274310;28;20137;-54
2021/05/26 06:31:44;;;;;;;5.13;2.90;;;;;;;10.95;81.07;99910.75;10274363;28;20081;-54
2021/05/26 06:36:45;;;;;;;5.10;3.05;;;;;;;10.96;82.37;99907.94;10279491;28;20058;-55
2021/05/26 06:41:47;;;;;;;5.45;2.83;;;;;;;11.03;82.52;99902.91;10290464;28;20484;-55
2021/05/26 06:46:48;;;;;;;5.88;2.53;;;;;;;10.96;81.35;99901.78;10294798;28;20096;-56
2021/05/26 06:51:50;;;;;;;6.57;3.85;;;;;;;11.07;82.73;99904.34;10293317;28;20791;-55
2021/05/26 06:56:51;;;;;;;4.53;2.47;;;;;;;11.07;81.40;99890.19;10295841;28;20564;-57
2021/05/26 07:01:53;;;;;;;4.78;3.13;;;;;;;11.10;81.69;99903.22;10296973;28;20051;-55
2021/05/26 07:06:56;;;;;;;7.10;3.50;;;;;;;11.01;82.21;99888.06;10292447;28;20069;-56
2021/05/26 07:11:57;;;;;;;5.25;3.22;;;;;;;10.95;82.38;99865.47;10287532;28;20053;-55
2021/05/26 07:17:01;;;;;;;5.95;2.80;;;;;;;11.02;82.42;99889.72;10272826;28;20047;-54
2021/05/26 07:22:03;;;;;;;4.15;3.30;;;;;;;11.21;81.50;99879.13;10293311;28;20050;-54
2021/05/26 07:27:04;;;;;;;5.30;3.45;;;;;;;11.00;81.53;99875.72;10294864;28;20104;-57
2021/05/26 07:32:06;;;;;;;3.15;2.78;;;;;;;10.87;82.38;99875.94;10295069;28;20122;-53
2021/05/26 07:37:07;;;;;;;4.28;3.15;;;;;;;10.95;83.27;99871.63;10300834;28;20078;-59
2021/05/26 07:42:12;;;;;;;6.47;2.45;;;;;;;11.17;82.60;99861.75;10303098;28;20179;-59
2021/05/26 07:47:14;;;;;;;4.53;2.55;;;;;;;11.31;81.78;99860.50;10291887;28;20058;-58
2021/05/26 07:52:19;;;;;;;6.13;2.38;;;;;;;11.35;82.64;99871.72;10294363;28;20049;-55
2021/05/26 07:57:21;;;;;;;5.20;2.50;;;;;;;11.24;82.64;99852.22;10303570;28;20252;-53
2021/05/26 08:02:22;;;;;;;3.58;1.90;;;;;;;11.47;82.78;99874.13;10297799;28;20058;-54
2021/05/26 08:07:24;;;;;;;4.45;2.10;;;;;;;11.48;82.10;99861.66;10294696;28;20207;-55
2021/05/26 08:12:25;;;;;;;5.88;2.83;;;;;;;11.37;82.47;99862.63;10299512;28;20043;-59
2021/05/26 08:17:26;;;;;;;4.75;2.13;;;;;;;11.41;82.85;99844.53;10299746;28;20078;-52
2021/05/26 08:22:28;;;;;;;6.57;3.92;;;;;;;11.69;81.62;99845.50;10298857;28;20082;-56
2021/05/26 08:27:31;;;;;;;5.10;1.83;;;;;;;11.81;80.93;99835.53;10300508;28;20070;-54
2021/05/26 08:32:33;;;;;;;5.00;1.80;;;;;;;11.92;80.04;99835.41;10305500;28;20054;-57
2021/05/26 08:37:35;;;;;;;5.13;1.88;;;;;;;11.88;80.97;99831.34;10297281;28;20510;-54
2021/05/26 08:42:37;;;;;;;5.18;1.92;;;;;;;11.88;79.72;99827.84;10292130;28;20153;-55
2021/05/26 08:47:42;;;;;;;3.75;2.13;;;;;;;12.26;79.07;99832.25;10286901;28;20058;-55
2021/05/26 08:52:45;;;;;;;4.15;1.33;;;;;;;12.58;76.24;99809.69;10291101;28;20113;-56
2021/05/26 08:57:47;;;;;;;3.93;1.17;;;;;;;13.00;76.17;99809.19;10287095;28;20499;-58
2021/05/26 09:02:48;;;;;;;3.03;1.30;;;;;;;13.50;74.13;99809.72;10284713;28;20133;-59
2021/05/26 09:07:50;;;;;;;2.72;1.02;;;;;;;13.39;73.88;99792.91;10285025;28;20065;-58
2021/05/26 09:12:56;;;;;;;4.32;1.80;;;;;;;13.44;72.41;99806.66;10283436;28;20058;-57
2021/05/26 09:17:57;;;;;;;3.75;1.88;;;;;;;13.47;70.89;99802.00;10281941;28;20492;-59
2021/05/26 09:23:05;;;;;;;2.97;1.35;;;;;;;13.42;71.43;99795.28;10285955;28;20058;-58
2021/05/26 09:28:27;;;;;;;7.13;4.50;;;;;;;13.50;72.21;99788.31;10284630;28;20400;-57
2021/05/26 09:33:30;;;;;;;2.20;0.95;;;;;;;13.36;70.33;99787.88;10283243;28;20062;-56
2021/05/26 09:38:31;;;;;;;1.95;1.20;;;;;;;13.29;69.92;99789.44;10272912;28;20196;-60
2021/05/26 09:43:43;;;;;;;2.50;1.40;;;;;;;13.09;70.69;99788.75;10299127;28;20081;-59
2021/05/26 09:49:19;;;;;;;3.28;1.45;;;;;;;13.06;70.93;99791.69;10295261;28;20476;-55
2021/05/26 09:54:31;;;;;;;2.65;1.50;;;;;;;12.96;72.00;99775.75;10295522;28;20050;-58
2021/05/26 09:59:35;;;;;;;2.28;1.02;;;;;;;13.02;72.43;99785.00;10294925;28;20198;-56
2021/05/26 10:04:41;;;;;;;3.00;1.23;;;;;;;12.93;71.79;99791.25;10293031;28;20049;-61
2021/05/26 10:09:43;;;;;;;3.15;1.40;;;;;;;13.07;71.86;99775.50;10302354;28;20341;-61
2021/05/26 10:14:45;;;;;;;3.30;1.38;;;;;;;13.28;72.60;99785.06;10295229;28;20500;-54
2021/05/26 10:19:49;;;;;;;3.92;1.27;;;;;;;13.06;73.78;99787.22;10293205;28;20061;-54
2021/05/26 10:24:51;;;;;;;3.07;1.27;;;;;;;12.99;76.69;99778.09;10296883;28;20041;-53
2021/05/26 10:29:57;;;;;;;4.72;1.33;;;;;;;12.85;77.57;99779.47;10296020;28;22366;-57
2021/05/26 10:35:01;;;;;;;1.80;1.20;;;;;;;12.79;79.30;99776.53;10292318;28;20222;-60
2021/05/26 10:40:34;;;;;;;2.42;1.15;;;;;;;12.61;80.12;99782.69;10290542;28;22126;-54
2021/05/26 10:45:35;;;;;;;2.25;1.13;;;;;;;12.57;81.05;99770.63;10265436;28;20050;-56
2021/05/26 10:50:55;;;;;;;3.72;1.10;;;;;;;12.53;81.41;99777.25;10281701;28;20062;-56
2021/05/26 10:55:57;;;;;;;5.13;2.33;;;;;;;12.58;82.20;99766.13;10281684;28;20054;-57
2021/05/26 11:00:58;;;;;;;2.67;1.45;;;;;;;12.58;82.18;99758.97;10282136;28;20054;-57
2021/05/26 11:06:18;;;;;;;4.18;1.42;;;;;;;12.37;83.87;99761.88;10280513;28;20128;-59
2021/05/26 11:11:34;;;;;;;3.28;1.90;;;;;;;12.59;83.73;99757.97;10279205;28;20046;-56
2021/05/26 11:16:52;;;;;;;3.92;1.85;;;;;;;12.47;84.45;99748.47;10277577;28;20129;-55
2021/05/26 11:22:00;;;;;;;3.00;2.35;;;;;;;12.35;84.17;99745.97;10279209;28;20124;-59
2021/05/26 11:27:13;;;;;;;4.75;2.92;;;;;;;12.21;85.71;99749.16;10280350;28;20152;-56
2021/05/26 11:32:18;;;;;;;4.68;2.50;;;;;;;12.34;85.11;99732.78;10267435;28;20381;-57
2021/05/26 11:37:25;;;;;;;3.83;2.25;;;;;;;12.32;84.42;99734.78;10279925;28;20439;-55
2021/05/26 11:42:30;;;;;;;4.70;2.70;;;;;;;12.40;85.74;99731.38;10295869;28;20404;-54
2021/05/26 11:47:39;;;;;;;3.22;2.67;;;;;;;12.43;83.26;99723.91;10295345;28;20139;-59
2021/05/26 11:52:41;;;;;;;3.15;2.47;;;;;;;12.72;83.46;99720.22;10294085;28;20124;-58
2021/05/26 11:57:44;;;;;;;4.78;3.17;;;;;;;13.11;83.11;99719.94;10290473;28;20127;-57
2021/05/26 12:03:03;;;;;;;3.70;2.03;;;;;;;12.76;83.56;99713.59;10291626;28;20064;-60
2021/05/26 12:08:15;;;;;;;3.55;2.05;;;;;;;12.71;84.98;99710.53;10286382;28;20062;-54
2021/05/26 12:13:21;;;;;;;1.92;1.20;;;;;;;12.53;86.18;99707.84;10292690;28;20104;-55
2021/05/26 12:18:23;;;;;;;1.83;1.17;;;;;;;12.56;87.06;99696.84;10280786;28;20046;-56
2021/05/26 12:23:43;;;;;;;1.75;1.50;;;;;;;12.48;87.38;99700.28;10293823;28;20061;-58
2021/05/26 12:28:45;;;;;;;3.08;1.45;;;;;;;12.36;87.80;99680.13;10298695;28;20056;-53
2021/05/26 12:33:50;;;;;;;1.55;1.08;;;;;;;12.37;86.91;99669.28;10301694;28;20526;-59
2021/05/26 12:38:58;;;;;;;2.90;1.95;;;;;;;12.50;87.60;99670.75;10293195;28;20113;-54
2021/05/26 12:44:09;;;;;;;1.40;1.30;;;;;;;12.56;87.28;99667.47;10286448;28;20081;-58
2021/05/26 12:49:29;;;;;;;1.60;1.23;;;;;;;12.48;88.00;99670.09;10288470;28;20058;-59
2021/05/26 12:54:40;;;;;;;3.08;1.60;;;;;;;12.55;89.04;99649.81;10285039;28;20072;-54
2021/05/26 12:59:43;;;;;;;3.53;1.90;;;;;;;12.46;89.51;99634.66;10280537;28;20125;-60
2021/05/26 13:04:50;;;;;;;4.28;2.10;;;;;;;12.32;91.44;99652.88;10281938;28;20511;-58
2021/05/26 13:09:53;;;;;;;2.65;1.50;;;;;;;12.25;93.02;99667.81;10284291;28;20514;-54
2021/05/26 13:15:21;;;;;;;3.80;1.50;;;;;;;12.45;91.78;99665.03;10283193;28;20047;-54
2021/05/26 13:20:32;;;;;;;2.83;1.48;;;;;;;12.55;91.52;99650.63;10282542;28;20093;-57
2021/05/26 13:25:35;;;;;;;3.33;2.00;;;;;;;12.80;90.82;99658.06;10281581;28;20137;-54
2021/05/26 13:30:43;;;;;;;2.75;1.50;;;;;;;13.31;88.57;99647.63;10289709;28;20122;-60
2021/05/26 13:35:45;;;;;;;2.55;2.00;;;;;;;13.52;86.89;99642.78;10287710;28;20116;-54
2021/05/26 13:40:47;;;;;;;1.98;1.48;;;;;;;13.72;85.82;99645.22;10293685;28;21552;-59
2021/05/26 13:45:49;;;;;;;1.77;1.30;;;;;;;13.24;88.08;99650.06;10297789;28;20046;-54
2021/05/26 13:50:51;;;;;;;2.55;1.85;;;;;;;13.09;88.32;99641.78;10305316;28;20046;-60
2021/05/26 13:55:52;;;;;;;2.40;1.80;;;;;;;12.96;89.37;99631.50;10295791;28;20074;-57
2021/05/26 14:00:53;;;;;;;1.75;1.23;;;;;;;13.03;88.18;99611.19;10301955;28;20357;-53
2021/05/26 14:05:55;;;;;;;1.80;1.10;;;;;;;12.94;89.19;99627.28;10301804;28;20128;-55
2021/05/26 14:10:59;;;;;;;2.75;1.50;;;;;;;12.77;90.63;99640.50;10299201;28;20056;-59
2021/05/26 14:16:05;;;;;;;3.70;1.88;;;;;;;12.87;90.88;99637.75;10284909;28;20069;-59
2021/05/26 14:21:07;;;;;;;2.50;1.25;;;;;;;13.00;89.55;99643.56;10299880;28;20172;-54
2021/05/26 14:26:09;;;;;;;3.78;1.15;;;;;;;13.01;88.85;99650.53;10283490;28;20065;-55
2021/05/26 14:31:10;;;;;;;2.88;1.13;;;;;;;14.22;86.02;99640.97;10300053;28;20464;-54
2021/05/26 14:36:15;;;;;;;1.92;1.05;;;;;;;14.11;85.06;99634.91;10293724;28;20085;-55
2021/05/26 14:41:16;;;;;;;;;;;;;;;13.88;84.56;99648.00;10293071;28;20157;-58
2021/05/26 14:46:18;;;;;;;1.38;0.70;;;;;;;13.73;85.53;99671.81;10299960;28;19961;-55
2021/05/26 14:51:20;;;;;;;1.17;0.10;;;;;;;13.60;81.21;99660.69;10297466;28;20574;-53
2021/05/26 14:56:21;;;;;;;0.10;0.00;;;;;;;13.55;81.92;99679.88;10293615;28;20074;-58
2021/05/26 15:01:25;;;;;;;0.60;0.15;;;;;;;13.91;80.75;99685.13;10300154;28;20069;-57
2021/05/26 15:06:27;;;;;;;4.85;4.50;;;;;;;14.48;81.03;99672.97;10291921;28;20532;-59
2021/05/26 15:11:28;;;;;;;0.82;0.50;;;;;;;14.95;77.97;99693.03;10296426;28;20073;-58
2021/05/26 15:16:30;;;;;;;0.55;0.10;;;;;;;14.76;75.70;99686.97;10295044;28;20054;-56
2021/05/26 15:21:32;;;;;;;0.75;0.10;;;;;;;14.63;75.60;99673.22;10298688;28;20133;-59
2021/05/26 15:26:34;;;;;;;0.40;0.10;;;;;;;14.71;72.32;99691.97;10294487;28;20085;-53
2021/05/26 15:31:36;;;;;;;0.20;0.00;;;;;;;15.06;73.67;99716.84;10272257;28;20069;-54
2021/05/26 15:36:38;;;;;;;0.88;0.10;;;;;;;14.75;70.10;99693.34;10292242;28;20144;-58
2021/05/26 15:41:41;;;;;;;0.10;0.10;;;;;;;14.84;71.19;99702.22;10284035;28;20123;-57
2021/05/26 15:46:42;;;;;;;0.35;0.10;;;;;;;14.59;69.00;99715.53;10281488;28;20061;-55
2021/05/26 15:51:44;;;;;;;0.88;0.20;;;;;;;14.75;68.65;99725.47;10264872;28;20054;-58
2021/05/26 15:56:46;;;;;;;0.90;0.20;;;;;;;14.89;67.17;99707.09;10284333;28;20050;-55
2021/05/26 16:01:47;;;;;;;0.30;0.08;;;;;;;15.07;69.02;99710.47;10288076;28;20046;-56
2021/05/26 16:06:49;;;;;;;0.47;0.10;;;;;;;15.10;68.49;99707.47;10288848;28;20082;-55
2021/05/26 16:11:50;;;;;;;0.40;0.10;;;;;;;15.42;68.54;99718.34;10287336;28;20056;-60
2021/05/26 16:16:52;;;;;;;0.73;0.13;;;;;;;15.63;66.39;99729.41;10289189;28;20061;-56
2021/05/26 16:21:54;;;;;;;0.57;0.10;;;;;;;15.45;65.26;99720.72;10260404;28;20062;-54
2021/05/26 16:26:56;;;;;;;0.40;0.20;;;;;;;15.51;63.31;99742.34;10288858;28;20050;-57
2021/05/26 16:31:59;;;;;;;0.47;0.10;;;;;;;15.58;64.70;99757.75;10287475;28;20093;-53
2021/05/26 16:37:00;;;;;;;1.00;0.30;;;;;;;15.33;64.57;99744.34;10288568;28;20119;-54
2021/05/26 16:42:03;;;;;;;0.60;0.20;;;;;;;15.15;64.31;99753.38;10286837;28;20054;-57
2021/05/26 16:47:05;;;;;;;0.80;0.30;;;;;;;15.12;64.57;99742.16;10288720;28;20132;-59
2021/05/26 16:52:06;;;;;;;0.30;0.10;;;;;;;15.05;64.09;99759.91;10285354;28;20695;-56
2021/05/26 16:57:10;;;;;;;0.55;0.30;;;;;;;15.03;63.01;99763.56;10277824;28;20694;-59
2021/05/26 17:02:11;;;;;;;1.10;0.20;;;;;;;14.73;63.37;99775.72;10283846;28;20128;-55
2021/05/26 17:07:13;;;;;;;0.82;0.20;;;;;;;14.80;65.47;99770.53;10274397;28;20050;-54
2021/05/26 17:12:14;;;;;;;1.98;0.38;;;;;;;14.42;65.08;99786.09;10268985;28;20084;-55
2021/05/26 17:17:18;;;;;;;0.93;0.40;;;;;;;14.11;66.22;99783.91;10288675;28;20448;-58
2021/05/26 17:22:19;;;;;;;1.00;0.30;;;;;;;14.03;67.66;99810.63;10272486;28;20135;-57
2021/05/26 17:27:25;;;;;;;0.90;0.50;;;;;;;13.53;69.78;99844.16;10287323;28;20073;-54
2021/05/26 17:32:26;;;;;;;1.90;0.93;;;;;;;13.26;71.93;99835.19;10286858;28;20117;-61
2021/05/26 17:37:28;;;;;;;1.88;0.55;;;;;;;13.38;71.36;99842.00;10282002;28;20046;-61
2021/05/26 17:42:29;;;;;;;2.55;1.02;;;;;;;13.33;70.91;99836.25;10303078;28;20054;-60
2021/05/26 17:47:31;;;;;;;2.70;0.85;;;;;;;13.41;72.59;99854.25;10309248;28;20050;-61
2021/05/26 17:52:33;;;;;;;2.53;1.52;;;;;;;13.46;73.58;99861.81;10299199;28;20104;-62
2021/05/26 17:57:35;;;;;;;1.20;0.52;;;;;;;13.30;71.57;99851.75;10306253;28;20049;-58
2021/05/26 18:02:37;;;;;;;1.23;0.70;;;;;;;13.41;72.19;99865.78;10297607;28;20104;-58
2021/05/26 18:07:40;;;;;;;2.47;0.93;;;;;;;13.26;71.12;99877.94;10308610;28;20054;-60
2021/05/26 18:12:41;;;;;;;1.00;0.57;;;;;;;13.13;70.14;99874.78;10313575;28;20062;-57
2021/05/26 18:17:44;;;;;;;1.42;0.68;;;;;;;13.02;72.12;99902.56;10305594;28;20886;-56
2021/05/26 18:22:47;;;;;;;1.83;0.40;;;;;;;12.92;70.93;99921.28;10305847;28;20058;-62
2021/05/26 18:27:52;;;;;;;1.23;0.57;;;;;;;12.68;70.84;99916.44;10307615;28;20495;-60
2021/05/26 18:32:54;;;;;;;1.42;0.80;;;;;;;12.71;71.44;99922.31;10290802;28;20077;-61
2021/05/26 18:37:57;;;;;;;0.73;0.63;;;;;;;12.57;73.13;99912.13;10305936;28;20531;-56
2021/05/26 18:43:01;;;;;;;1.80;0.88;;;;;;;12.60;72.47;99921.69;10300209;28;20048;-59
2021/05/26 18:48:03;;;;;;;2.47;1.35;;;;;;;12.66;74.93;99924.59;10305313;28;20078;-57
2021/05/26 18:53:06;;;;;;;3.28;1.83;;;;;;;12.79;76.07;99950.16;10304651;28;21035;-60
2021/05/26 18:58:09;;;;;;;2.15;1.75;;;;;;;12.76;74.44;99955.78;10306266;28;20050;-59
2021/05/26 19:03:11;;;;;;;2.97;1.50;;;;;;;12.82;76.66;99952.53;10302760;28;20308;-59
2021/05/26 19:08:16;;;;;;;1.90;1.17;;;;;;;12.86;75.07;99951.25;10304102;28;20073;-58
2021/05/26 19:13:19;;;;;;;1.60;1.30;;;;;;;12.81;74.46;99959.69;10298734;28;20850;-58
2021/05/26 19:18:20;;;;;;;1.40;1.25;;;;;;;12.73;69.45;99962.28;10299780;28;20447;-59
2021/05/26 19:23:22;;;;;;;4.65;1.33;;;;;;;12.64;69.91;99966.66;10307101;28;20467;-57
2021/05/26 19:28:23;;;;;;;2.55;1.20;;;;;;;12.61;67.65;99964.25;10307775;28;20165;-59
2021/05/26 19:33:25;;;;;;;1.48;0.98;;;;;;;12.54;67.98;99984.50;10301199;28;20121;-59
2021/05/26 19:38:26;;;;;;;1.90;1.05;;;;;;;12.44;68.90;99989.00;10299397;28;20049;-57
2021/05/26 19:43:28;;;;;;;3.13;1.27;;;;;;;12.40;68.92;99998.28;10289569;28;20042;-60
2021/05/26 19:48:29;;;;;;;5.72;2.60;;;;;;;12.12;70.21;99969.63;10291139;28;20053;-59
2021/05/26 19:53:31;;;;;;;1.70;1.17;;;;;;;12.28;69.79;100000.25;10286668;28;20061;-57
2021/05/26 19:58:32;;;;;;;3.05;1.55;;;;;;;12.09;68.96;100006.44;10268518;28;20042;-57
2021/05/26 20:03:34;;;;;;;2.08;1.70;;;;;;;11.93;70.10;99997.13;10273987;28;20053;-58
2021/05/26 20:08:36;;;;;;;2.65;1.63;;;;;;;11.89;70.62;100019.72;10289198;28;20053;-61
2021/05/26 20:13:37;;;;;;;3.95;1.48;;;;;;;11.96;71.26;100028.88;10290705;28;20058;-57
2021/05/26 20:18:39;;;;;;;2.80;1.55;;;;;;;11.90;71.97;100018.72;10275177;28;20149;-59
2021/05/26 20:23:44;;;;;;;2.13;1.50;;;;;;;11.84;71.74;100022.81;10280705;28;20140;-56
2021/05/26 20:28:47;;;;;;;1.50;1.10;;;;;;;11.65;71.47;100022.75;10283214;28;20047;-57
2021/05/26 20:33:50;;;;;;;2.00;1.40;;;;;;;11.53;73.72;100027.34;10286878;28;20725;-58
2021/05/26 20:38:52;;;;;;;2.80;1.60;;;;;;;11.46;72.65;100036.84;10287562;28;20120;-58
2021/05/26 20:43:53;;;;;;;2.10;1.30;;;;;;;11.35;73.36;100035.13;10289612;28;20056;-57
2021/05/26 20:48:55;;;;;;;2.67;1.48;;;;;;;11.21;72.81;100038.97;10294297;28;20129;-59
2021/05/26 20:53:57;;;;;;;1.92;1.45;;;;;;;11.10;73.97;100021.25;10297441;28;21174;-57
2021/05/26 20:58:58;;;;;;;2.05;1.33;;;;;;;11.28;74.09;100049.97;10292189;28;20073;-56
2021/05/26 21:04:00;;;;;;;2.83;1.38;;;;;;;11.13;72.70;100039.66;10293298;28;20895;-55
2021/05/26 21:09:02;;;;;;;2.88;1.17;;;;;;;11.19;74.34;100056.94;10291960;28;20054;-56
2021/05/26 21:14:03;;;;;;;2.40;1.05;;;;;;;11.17;72.92;100063.34;10289034;28;20895;-56
2021/05/26 21:19:05;;;;;;;2.38;1.00;;;;;;;11.06;72.89;100058.97;10287063;28;21540;-60
2021/05/26 21:24:07;;;;;;;2.97;1.10;;;;;;;10.98;72.58;100070.28;10287568;28;20050;-56
2021/05/26 21:29:08;;;;;;;2.17;0.77;;;;;;;10.83;71.87;100077.75;10295676;28;20070;-61
2021/05/26 21:34:10;;;;;;;3.35;0.80;;;;;;;10.85;73.70;100080.28;10281762;28;20046;-57
2021/05/26 21:39:11;;;;;;;3.03;0.90;;;;;;;10.70;72.72;100071.75;10290869;28;20066;-58
2021/05/26 21:44:13;;;;;;;2.80;1.30;;;;;;;10.73;73.02;100088.34;10299604;28;20042;-56
2021/05/26 21:49:14;;;;;;;1.40;1.25;;;;;;;10.68;73.58;100087.03;10292863;28;21850;-56
2021/05/26 21:54:16;;;;;;;0.93;0.75;;;;;;;10.53;73.64;100083.81;10289152;28;20065;-57
2021/05/26 21:59:17;;;;;;;2.03;1.05;;;;;;;10.36;74.54;100087.88;10296854;28;20101;-58
2021/05/26 22:04:19;;;;;;;2.70;1.33;;;;;;;10.38;74.31;100091.25;10291312;28;20117;-58
2021/05/26 22:09:20;;;;;;;3.30;1.25;;;;;;;10.34;75.05;100082.66;10290992;28;20074;-56
2021/05/26 22:14:22;;;;;;;2.42;1.00;;;;;;;10.37;75.12;100089.56;10287739;28;20042;-56
2021/05/26 22:19:23;;;;;;;2.42;1.05;;;;;;;10.13;75.47;100069.28;10285192;28;20565;-56
2021/05/26 22:24:25;;;;;;;1.92;1.10;;;;;;;10.16;76.22;100071.69;10293647;28;20054;-57
2021/05/26 22:29:26;;;;;;;2.58;1.30;;;;;;;10.20;75.84;100081.09;10293253;28;20113;-61
2021/05/26 22:34:28;;;;;;;2.13;1.33;;;;;;;10.18;76.25;100066.25;10294377;28;20058;-58
2021/05/26 22:39:29;;;;;;;1.48;0.90;;;;;;;10.22;75.84;100079.19;10291927;28;20102;-62
2021/05/26 22:50:01;;;;;;;2.28;1.20;;;;;;;10.19;76.81;100079.44;10266307;28;20059;-57
2021/05/26 22:55:04;;;;;;;2.13;1.08;;;;;;;10.17;76.79;100078.69;10292470;28;20056;-56
2021/05/26 23:00:21;;;;;;;4.55;1.33;;;;;;;10.19;76.30;100090.06;10296036;28;20070;-59
2021/05/26 23:05:23;;;;;;;2.55;1.25;;;;;;;10.05;76.98;100074.38;10284535;28;20112;-54
2021/05/26 23:10:26;;;;;;;3.10;1.38;;;;;;;9.91;76.49;100081.66;10292994;28;20413;-54
2021/05/26 23:15:27;;;;;;;1.55;1.45;;;;;;;9.95;77.75;100089.38;10290282;28;20058;-59
2021/05/26 23:20:29;;;;;;;3.05;1.45;;;;;;;9.85;77.25;100090.13;10299010;28;20074;-55
2021/05/26 23:25:30;;;;;;;3.53;1.52;;;;;;;9.86;77.67;100094.50;10284472;28;20120;-60
2021/05/26 23:30:32;;;;;;;3.65;1.50;;;;;;;9.98;77.34;100108.59;10264431;28;20084;-57
2021/05/26 23:35:34;;;;;;;4.28;1.75;;;;;;;9.91;77.29;100102.09;10274144;28;20504;-55